Airfield :
LOGIN :

Register | Disclaimer

   EN    FR    IT 

 










Legend :    VFR   Marginal VFR   IFR   Intensive IFR   Very Intensive IFR
Visi :
Ceiling :
>= 8 km
>= 3000ft
5 to 8 km
1000 to 3000 ft
1500m to 5 km
500 to 1000 ft
800 to 1500m
200 to 500 ft
< 800m
< 200 ft
Symbols :   Thunderstorms  Fog  Heavy snow  Heavy precipitations  Wind > 20 kt
SIGMETs :     Misc.  Thunderstorms  Icing  Turbulence  Mountain Waves  Volcanic Ashes






- Airport Elevation : 39 ft
- IATA code : TRS


LIPQ - Friuli Venezia Giulia Apt. Trieste

CURRENT METAR :
  • 032320Z AUTO 10003KT 060V120 9999 VCTS BKN034/// BKN180/// 20/17 Q1002

EXPIRED METARs :
  • 032250Z AUTO 09006KT 9999 VCTS SCT022/// BKN080/// BKN200/// 20/17 Q1002
  • 032220Z AUTO 10006KT 9999 FEW057/// BKN072/// BKN240/// 20/18 Q1002
  • 032150Z AUTO 10005KT 9999 FEW020/// 20/18 Q1003
  • 032120Z AUTO 10006KT 9999 BKN020/// 20/18 Q1003
  • 032050Z AUTO 10004KT 9999 BKN022/// BKN070/// BKN086/// 20/19 Q1003

TAF TAF LIPQ
Valid from the 04 at 00:00 until the 05 at 00:00 UTC


032300Z 0400/0424 VRB05KT 9999 BKN040
TEMPO 0400/0412 4000 TSRA



MET'MAP, your aeronautical weather chart ! - Copyright ORBIFLY December 2007 - Disclaimer

ORBIFLY MET'MAP TEAM :

Programming & Development : Alexandra Zaïnal
Concept & original design : Baudouin d'Aumeries
Assistance for programming : Marc-Olivier Méhu
Technical & hardware support : Manuel Goepfert

Contact : metmap@orbifly.com




SOURCES & CREDITS :

   NOAA